Time;durP1;ratioP1;P1;durP2;ratioP2;P2;SDS_P1;SDS_P2;PMS_P1;PMS_P2;Temp;Humidity;BMP_temperature;BMP_pressure;BME280_temperature;BME280_humidity;BME280_pressure;Samples;Min_cycle;Max_cycle;Signal;HPM_P1;HPM_P2
2022/10/18 00:01:19;;;;;;;6.30;4.53;;;17.90;99.90;;;;;;5107965;28;20237;-69
2022/10/18 00:03:46;;;;;;;5.40;4.03;;;17.90;99.90;;;;;;5108028;28;20187;-68
2022/10/18 00:06:14;;;;;;;7.53;3.80;;;17.90;99.90;;;;;;5108099;28;20213;-69
2022/10/18 00:08:41;;;;;;;7.83;4.10;;;17.90;99.90;;;;;;5107888;28;20213;-69
2022/10/18 00:11:08;;;;;;;3.90;3.50;;;17.90;99.90;;;;;;5107831;28;20212;-68
2022/10/18 00:13:35;;;;;;;5.10;4.27;;;18.00;99.90;;;;;;5114099;28;20204;-68
2022/10/18 00:16:03;;;;;;;7.27;4.33;;;17.90;99.90;;;;;;5128462;27;20202;-68
2022/10/18 00:18:31;;;;;;;6.10;4.17;;;17.90;99.90;;;;;;5127848;27;20715;-68
2022/10/18 00:21:00;;;;;;;4.30;3.97;;;18.00;99.90;;;;;;5128040;27;20738;-68
2022/10/18 00:23:29;;;;;;;6.33;4.30;;;17.90;99.90;;;;;;5126598;27;20556;-68
2022/10/18 00:26:00;;;;;;;5.47;4.00;;;17.90;99.90;;;;;;5130317;27;20202;-68
2022/10/18 00:28:27;;;;;;;7.33;4.00;;;17.90;99.90;;;;;;5132505;27;20210;-67
2022/10/18 00:30:54;;;;;;;6.87;4.10;;;17.90;99.90;;;;;;5132221;27;20543;-67
2022/10/18 00:33:20;;;;;;;4.23;3.87;;;17.90;99.90;;;;;;5123222;27;20205;-68
2022/10/18 00:35:47;;;;;;;5.10;4.03;;;17.90;99.90;;;;;;5131965;27;20651;-68
2022/10/18 00:38:14;;;;;;;7.20;4.17;;;17.90;99.90;;;;;;5132164;27;20232;-68
2022/10/18 00:40:42;;;;;;;6.67;3.80;;;17.80;99.90;;;;;;5131891;27;20204;-68
2022/10/18 00:43:15;;;;;;;7.07;4.30;;;17.80;99.90;;;;;;5131762;27;20678;-68
2022/10/18 00:45:41;;;;;;;5.50;4.00;;;17.80;99.90;;;;;;5132222;27;20201;-68
2022/10/18 00:48:08;;;;;;;9.97;4.77;;;17.80;99.90;;;;;;5131676;27;20679;-68
2022/10/18 00:50:36;;;;;;;9.23;4.13;;;17.80;99.90;;;;;;5130257;27;20205;-70
2022/10/18 00:53:07;;;;;;;6.77;4.13;;;17.80;99.90;;;;;;5128208;27;20201;-70
2022/10/18 00:55:34;;;;;;;5.60;4.00;;;17.80;99.90;;;;;;5119207;27;20202;-70
2022/10/18 00:58:04;;;;;;;5.97;4.23;;;17.80;99.90;;;;;;5111454;28;20244;-70
2022/10/18 01:00:31;;;;;;;4.90;4.00;;;17.80;99.90;;;;;;5111008;28;20203;-70
2022/10/18 01:02:58;;;;;;;9.77;4.67;;;17.80;99.90;;;;;;5120884;27;20233;-70
2022/10/18 01:05:26;;;;;;;6.87;4.40;;;17.80;99.90;;;;;;5131608;27;20205;-70
2022/10/18 01:08:26;;;;;;;6.83;4.00;;;17.80;99.90;;;;;;5131451;27;20197;-70
2022/10/18 01:11:04;;;;;;;6.00;4.70;;;17.70;99.90;;;;;;5128964;27;20216;-70
2022/10/18 01:13:44;;;;;;;5.77;5.10;;;17.70;99.90;;;;;;5131294;27;20201;-71
2022/10/18 01:16:19;;;;;;;5.37;4.53;;;17.80;99.90;;;;;;5131423;27;20208;-71
2022/10/18 01:18:49;;;;;;;5.00;4.60;;;17.80;99.90;;;;;;5131162;27;20221;-69
2022/10/18 01:21:30;;;;;;;8.50;3.93;;;17.80;99.90;;;;;;5129832;27;20231;-69
2022/10/18 01:24:28;;;;;;;4.97;3.83;;;17.70;99.90;;;;;;5110783;28;20198;-67
2022/10/18 01:27:13;;;;;;;4.93;4.43;;;17.80;99.90;;;;;;5110661;28;20217;-69
2022/10/18 01:29:53;;;;;;;11.83;4.67;;;17.70;99.90;;;;;;5122968;27;20216;-69
2022/10/18 01:32:24;;;;;;;7.60;4.40;;;17.70;99.90;;;;;;5130919;27;20192;-70
2022/10/18 01:34:56;;;;;;;6.13;4.50;;;17.80;99.90;;;;;;5131132;27;20206;-69
2022/10/18 01:37:23;;;;;;;6.43;4.67;;;17.80;99.90;;;;;;5130476;27;20209;-69
2022/10/18 01:39:55;;;;;;;4.73;4.33;;;17.80;99.90;;;;;;5131198;27;20205;-69
2022/10/18 01:42:22;;;;;;;5.27;4.40;;;17.80;99.90;;;;;;5130914;27;20186;-69
2022/10/18 01:44:52;;;;;;;5.60;4.47;;;17.80;99.90;;;;;;5130822;27;20209;-69
2022/10/18 01:47:21;;;;;;;5.77;4.60;;;17.80;99.90;;;;;;5130280;27;20227;-69
2022/10/18 01:49:48;;;;;;;5.27;4.07;;;17.70;99.90;;;;;;5130759;27;20205;-69
2022/10/18 01:52:16;;;;;;;9.27;4.67;;;17.70;99.90;;;;;;5120512;27;20665;-69
2022/10/18 01:54:48;;;;;;;4.87;4.50;;;17.70;99.90;;;;;;5111061;27;20214;-69
2022/10/18 01:57:23;;;;;;;4.70;4.30;;;17.70;99.90;;;;;;5130359;27;20241;-69
2022/10/18 01:59:56;;;;;;;7.50;4.50;;;17.70;99.90;;;;;;5130180;27;20197;-69
2022/10/18 02:02:37;;;;;;;5.67;4.70;;;17.70;99.90;;;;;;5130074;27;20604;-69
2022/10/18 02:05:12;;;;;;;5.90;5.30;;;17.70;99.90;;;;;;5130559;27;20201;-68
2022/10/18 02:07:44;;;;;;;5.90;5.40;;;17.70;99.90;;;;;;5130482;27;20656;-68
2022/10/18 02:10:15;;;;;;;5.93;5.30;;;17.70;99.90;;;;;;5130585;27;20193;-69
2022/10/18 02:12:44;;;;;;;5.90;5.23;;;17.70;99.90;;;;;;5130383;27;20194;-69
2022/10/18 02:15:17;;;;;;;7.47;6.80;;;17.70;99.90;;;;;;5130853;27;20559;-68
2022/10/18 02:17:46;;;;;;;7.10;6.50;;;17.70;99.90;;;;;;5130175;27;20221;-68
2022/10/18 02:20:14;;;;;;;7.27;6.70;;;17.70;99.90;;;;;;5129939;27;20202;-68
2022/10/18 02:22:44;;;;;;;7.40;6.90;;;17.70;99.90;;;;;;5129939;27;20699;-68
2022/10/18 02:25:16;;;;;;;7.63;7.00;;;17.80;99.90;;;;;;5130021;27;20200;-68
2022/10/18 02:27:43;;;;;;;7.63;6.93;;;17.80;99.90;;;;;;5122234;27;20222;-68
2022/10/18 02:30:11;;;;;;;10.37;6.93;;;17.80;99.90;;;;;;5127789;27;20205;-68
2022/10/18 02:32:40;;;;;;;8.07;7.27;;;17.80;99.90;;;;;;5128028;27;20209;-68
2022/10/18 02:35:13;;;;;;;7.00;6.33;;;17.80;99.90;;;;;;5126312;27;20198;-68
2022/10/18 02:37:42;;;;;;;7.43;6.73;;;17.80;99.90;;;;;;5127747;27;20696;-68
2022/10/18 02:40:10;;;;;;;6.97;6.47;;;17.80;99.90;;;;;;5127607;27;20201;-68
2022/10/18 02:42:38;;;;;;;7.17;6.47;;;17.80;99.90;;;;;;5123807;27;20194;-68
2022/10/18 02:45:06;;;;;;;9.20;6.67;;;17.80;99.90;;;;;;5122434;27;20704;-68
2022/10/18 02:47:33;;;;;;;7.23;6.67;;;17.80;99.90;;;;;;5122386;27;20667;-68
2022/10/18 02:50:00;;;;;;;7.50;6.73;;;17.80;99.90;;;;;;5127544;27;20205;-69
2022/10/18 02:52:28;;;;;;;8.33;5.90;;;17.70;99.90;;;;;;5128125;27;20213;-68
2022/10/18 02:54:55;;;;;;;6.60;6.13;;;17.80;99.90;;;;;;5127974;27;20220;-69
2022/10/18 02:57:21;;;;;;;6.63;6.10;;;17.80;99.90;;;;;;5126810;27;20612;-69
2022/10/18 02:59:48;;;;;;;6.77;6.10;;;17.70;99.90;;;;;;5127328;27;20225;-69
2022/10/18 03:02:15;;;;;;;8.20;6.70;;;17.80;99.90;;;;;;5126684;27;20229;-69
2022/10/18 03:04:41;;;;;;;6.70;6.10;;;17.80;99.90;;;;;;5127550;27;20209;-69
2022/10/18 03:07:08;;;;;;;6.90;6.30;;;17.70;99.90;;;;;;5126617;27;20374;-69
2022/10/18 03:09:36;;;;;;;7.50;6.70;;;17.80;99.90;;;;;;5125942;27;20201;-68
2022/10/18 03:12:04;;;;;;;7.33;6.73;;;17.70;99.90;;;;;;5128332;27;20218;-69
2022/10/18 03:14:30;;;;;;;7.13;6.60;;;17.70;99.90;;;;;;5128696;27;20554;-68
2022/10/18 03:16:57;;;;;;;7.93;6.97;;;17.60;99.90;;;;;;5128911;27;20205;-69
2022/10/18 03:19:24;;;;;;;7.00;6.40;;;17.50;99.90;;;;;;5128622;27;20237;-69
2022/10/18 03:21:50;;;;;;;7.37;6.77;;;17.50;99.90;;;;;;5122171;27;20591;-69
2022/10/18 03:24:17;;;;;;;7.47;6.77;;;17.50;99.90;;;;;;5108284;28;20579;-68
2022/10/18 03:26:45;;;;;;;7.63;6.93;;;17.50;99.90;;;;;;5108518;28;20213;-68
2022/10/18 03:29:12;;;;;;;7.13;6.63;;;17.50;99.90;;;;;;5108316;28;20214;-69
2022/10/18 03:31:39;;;;;;;8.00;6.70;;;17.50;99.90;;;;;;5108455;28;20206;-69
2022/10/18 03:34:06;;;;;;;7.47;6.23;;;17.60;99.90;;;;;;5109774;27;20202;-69
2022/10/18 03:36:33;;;;;;;7.17;6.50;;;17.60;99.90;;;;;;5128542;27;20659;-69
2022/10/18 03:39:00;;;;;;;8.80;6.67;;;17.70;99.90;;;;;;5128729;27;20221;-69
2022/10/18 03:41:27;;;;;;;6.63;6.03;;;17.70;99.90;;;;;;5108552;27;20625;-69
2022/10/18 03:43:55;;;;;;;6.43;5.80;;;17.70;99.90;;;;;;5107788;28;20221;-68
2022/10/18 03:46:22;;;;;;;8.50;6.83;;;17.80;99.90;;;;;;5107861;28;20201;-68
2022/10/18 03:48:49;;;;;;;7.00;6.37;;;17.70;99.90;;;;;;5107959;28;20198;-69
2022/10/18 03:51:16;;;;;;;6.67;6.10;;;17.70;99.90;;;;;;5108090;28;20206;-69
2022/10/18 03:53:42;;;;;;;6.63;6.00;;;17.70;99.90;;;;;;5107831;28;20206;-69
2022/10/18 03:56:09;;;;;;;6.63;6.13;;;17.80;99.90;;;;;;5107625;28;20213;-69
2022/10/18 03:58:36;;;;;;;5.97;5.53;;;17.80;99.90;;;;;;5113972;27;20232;-69
2022/10/18 04:01:04;;;;;;;9.20;6.83;;;17.80;99.90;;;;;;5128327;27;20205;-69
2022/10/18 04:03:31;;;;;;;6.73;6.07;;;17.80;99.90;;;;;;5128470;27;20197;-69
2022/10/18 04:05:59;;;;;;;7.10;6.40;;;17.70;99.90;;;;;;5128644;27;20223;-69
2022/10/18 04:08:26;;;;;;;6.60;6.10;;;17.70;99.90;;;;;;5110203;27;20664;-69
2022/10/18 04:10:52;;;;;;;6.37;5.97;;;17.60;99.90;;;;;;5107713;28;20201;-69
2022/10/18 04:13:19;;;;;;;7.13;6.20;;;17.60;99.90;;;;;;5108066;28;20206;-69
2022/10/18 04:15:46;;;;;;;7.77;6.00;;;17.60;99.90;;;;;;5107953;28;20695;-69
2022/10/18 04:18:14;;;;;;;6.40;5.90;;;17.50;99.90;;;;;;5118237;28;20228;-69
2022/10/18 04:20:41;;;;;;;6.77;6.13;;;17.50;99.90;;;;;;5128283;27;20738;-69
2022/10/18 04:23:08;;;;;;;6.10;5.70;;;17.50;99.90;;;;;;5128459;27;20205;-69
2022/10/18 04:25:34;;;;;;;6.70;6.00;;;17.50;99.90;;;;;;5128106;27;20205;-68
2022/10/18 04:28:03;;;;;;;8.03;7.33;;;17.50;99.90;;;;;;5128052;27;20572;-68
2022/10/18 04:30:30;;;;;;;7.73;7.13;;;17.50;99.90;;;;;;5128175;27;20252;-69
2022/10/18 04:32:56;;;;;;;7.77;7.17;;;17.50;99.90;;;;;;5128306;27;20210;-69
2022/10/18 04:35:26;;;;;;;7.93;7.23;;;17.60;99.90;;;;;;5127884;27;20592;-69
2022/10/18 04:37:53;;;;;;;7.20;6.53;;;17.50;99.90;;;;;;5107542;28;20296;-69
2022/10/18 04:40:20;;;;;;;8.03;7.27;;;17.50;99.90;;;;;;5117152;28;20229;-69
2022/10/18 04:42:47;;;;;;;7.07;6.47;;;17.50;99.90;;;;;;5128115;27;20211;-69
2022/10/18 04:45:13;;;;;;;6.83;6.23;;;17.50;99.90;;;;;;5127781;27;20216;-69
2022/10/18 04:47:40;;;;;;;6.97;6.47;;;17.50;99.90;;;;;;5128296;27;20212;-68
2022/10/18 04:50:08;;;;;;;7.60;6.77;;;17.50;99.90;;;;;;5110616;27;20202;-69
2022/10/18 04:52:36;;;;;;;7.77;7.07;;;17.50;99.90;;;;;;5107269;28;20210;-69
2022/10/18 04:55:04;;;;;;;8.00;7.27;;;17.50;99.90;;;;;;5115234;28;20209;-69
2022/10/18 04:57:31;;;;;;;7.30;6.50;;;17.50;99.90;;;;;;5127792;27;20206;-69
2022/10/18 04:59:58;;;;;;;7.07;6.47;;;17.50;99.90;;;;;;5127832;27;20225;-69
2022/10/18 05:02:25;;;;;;;7.30;6.70;;;17.40;99.90;;;;;;5127441;27;20234;-69
2022/10/18 05:04:51;;;;;;;7.10;6.43;;;17.50;99.90;;;;;;5127947;27;20572;-69
2022/10/18 05:07:18;;;;;;;7.47;6.77;;;17.40;99.90;;;;;;5127909;27;20212;-69
2022/10/18 05:09:46;;;;;;;7.47;6.80;;;17.40;99.90;;;;;;5124951;27;20205;-68
2022/10/18 05:12:13;;;;;;;6.93;6.30;;;17.40;99.90;;;;;;5129415;27;20205;-69
2022/10/18 05:14:40;;;;;;;6.47;5.97;;;17.40;99.90;;;;;;5119514;27;20205;-69
2022/10/18 05:17:06;;;;;;;7.60;7.00;;;17.40;99.90;;;;;;5110911;28;20206;-68
2022/10/18 05:19:33;;;;;;;8.13;7.07;;;17.40;99.90;;;;;;5110767;28;20226;-69
2022/10/18 05:22:00;;;;;;;6.83;6.33;;;17.40;99.90;;;;;;5110416;28;20240;-68
2022/10/18 05:24:27;;;;;;;6.77;6.27;;;17.40;99.90;;;;;;5110539;28;20213;-68
2022/10/18 05:26:55;;;;;;;8.00;6.53;;;17.40;99.90;;;;;;5110598;28;20212;-68
2022/10/18 05:29:22;;;;;;;6.93;6.37;;;17.40;99.90;;;;;;5110526;28;20218;-69
2022/10/18 05:31:49;;;;;;;7.40;6.70;;;17.40;99.90;;;;;;5123265;27;20201;-69
2022/10/18 05:34:15;;;;;;;7.13;6.43;;;17.30;99.90;;;;;;5113217;27;20205;-68
2022/10/18 05:36:42;;;;;;;7.10;6.53;;;17.30;99.90;;;;;;5120101;27;20213;-69
2022/10/18 05:39:09;;;;;;;7.53;6.93;;;17.30;99.90;;;;;;5110389;28;20222;-69
2022/10/18 05:41:36;;;;;;;6.90;6.20;;;17.30;99.90;;;;;;5110428;28;20225;-69
2022/10/18 05:44:05;;;;;;;7.20;6.50;;;17.30;99.90;;;;;;5110486;28;20198;-68
2022/10/18 05:46:32;;;;;;;6.97;6.47;;;17.20;99.90;;;;;;5110104;28;20217;-68
2022/10/18 05:48:59;;;;;;;7.17;6.57;;;17.30;99.90;;;;;;5110042;28;20673;-68
2022/10/18 05:51:26;;;;;;;7.90;7.10;;;17.20;99.90;;;;;;5115767;27;20214;-68
2022/10/18 05:53:53;;;;;;;11.97;10.77;;;17.20;99.90;;;;;;5110516;28;20210;-69
2022/10/18 05:56:20;;;;;;;25.17;22.77;;;17.20;99.90;;;;;;5109764;28;20210;-69
2022/10/18 05:58:50;;;;;;;21.73;19.40;;;17.20;99.90;;;;;;5110112;28;20233;-69
2022/10/18 06:01:19;;;;;;;13.93;12.73;;;17.20;99.90;;;;;;5110086;27;20230;-69
2022/10/18 06:03:46;;;;;;;10.77;9.83;;;17.20;99.90;;;;;;5109226;28;20209;-69
2022/10/18 06:06:14;;;;;;;9.20;8.30;;;17.20;99.90;;;;;;5110077;28;20217;-68
2022/10/18 06:08:42;;;;;;;7.87;7.07;;;17.20;99.90;;;;;;5109926;28;20653;-68
2022/10/18 06:11:10;;;;;;;9.20;7.53;;;17.30;99.90;;;;;;5123737;27;20231;-68
2022/10/18 06:13:40;;;;;;;8.30;7.60;;;17.20;99.90;;;;;;5130264;27;20213;-69
2022/10/18 06:16:08;;;;;;;7.07;6.53;;;17.20;99.90;;;;;;5130414;27;20197;-69
2022/10/18 06:18:36;;;;;;;6.80;6.20;;;17.20;99.90;;;;;;5130300;27;20201;-69
2022/10/18 06:21:03;;;;;;;7.53;6.77;;;17.20;99.90;;;;;;5129799;27;20233;-68
2022/10/18 06:23:30;;;;;;;7.57;6.97;;;17.20;99.90;;;;;;5109410;27;20233;-68
2022/10/18 06:25:59;;;;;;;9.07;7.10;;;17.20;99.90;;;;;;5108859;28;20790;-68
2022/10/18 06:28:26;;;;;;;7.53;6.93;;;17.20;99.90;;;;;;5126388;27;20750;-68
2022/10/18 06:30:53;;;;;;;8.03;7.23;;;17.10;99.90;;;;;;5129752;27;20216;-68
2022/10/18 06:33:19;;;;;;;6.97;6.37;;;17.10;99.90;;;;;;5115675;27;20209;-68
2022/10/18 06:35:56;;;;;;;7.23;6.63;;;17.00;99.90;;;;;;5109706;28;20264;-68
2022/10/18 06:38:22;;;;;;;6.87;6.27;;;17.10;99.90;;;;;;5109356;28;20186;-68
2022/10/18 06:40:49;;;;;;;7.03;6.50;;;17.10;99.90;;;;;;5109276;28;20230;-68
2022/10/18 06:43:16;;;;;;;7.60;6.90;;;17.10;99.90;;;;;;5109062;28;20213;-68
2022/10/18 06:45:43;;;;;;;7.60;6.90;;;17.10;99.90;;;;;;5109113;28;20209;-68
2022/10/18 06:48:10;;;;;;;8.57;7.57;;;17.00;99.90;;;;;;5121825;27;20664;-68
2022/10/18 06:50:36;;;;;;;8.13;7.37;;;17.00;99.90;;;;;;5129803;27;20219;-68
2022/10/18 06:53:07;;;;;;;9.80;7.20;;;17.10;99.90;;;;;;5129701;27;20214;-68
2022/10/18 06:55:34;;;;;;;7.60;6.80;;;17.10;99.90;;;;;;5129038;27;20653;-68
2022/10/18 06:58:01;;;;;;;7.00;6.50;;;17.00;99.90;;;;;;5129508;27;20216;-68
2022/10/18 07:00:28;;;;;;;6.30;5.70;;;17.00;99.90;;;;;;5129468;27;20232;-68
2022/10/18 07:02:55;;;;;;;5.60;5.10;;;17.10;99.90;;;;;;5128976;27;20234;-68
2022/10/18 07:05:21;;;;;;;6.77;5.10;;;17.00;99.90;;;;;;5129099;27;20294;-69
2022/10/18 07:07:48;;;;;;;6.60;5.50;;;17.00;99.90;;;;;;5129179;27;20201;-68
2022/10/18 07:10:16;;;;;;;6.37;5.83;;;17.00;99.90;;;;;;5129032;27;20205;-68
2022/10/18 07:12:43;;;;;;;5.97;5.47;;;17.10;99.90;;;;;;5129135;27;20212;-68
2022/10/18 07:15:10;;;;;;;7.57;5.30;;;17.10;99.90;;;;;;5129231;27;20209;-69
2022/10/18 07:17:37;;;;;;;6.00;5.50;;;17.10;99.90;;;;;;5129036;27;20246;-68
2022/10/18 07:20:04;;;;;;;5.43;4.93;;;17.10;99.90;;;;;;5128780;27;20229;-68
2022/10/18 07:22:32;;;;;;;8.83;5.30;;;17.10;99.90;;;;;;5128743;27;20563;-68
2022/10/18 07:24:59;;;;;;;6.17;5.57;;;17.10;99.90;;;;;;5128628;27;20656;-68
2022/10/18 07:27:27;;;;;;;6.60;5.83;;;17.00;99.90;;;;;;5128696;27;20202;-69
2022/10/18 07:29:54;;;;;;;6.70;6.03;;;17.00;99.90;;;;;;5129001;27;20213;-68
2022/10/18 07:32:23;;;;;;;7.10;6.50;;;16.90;99.90;;;;;;5128700;27;20209;-68
2022/10/18 07:34:50;;;;;;;7.07;6.47;;;16.80;99.90;;;;;;5128521;27;20208;-68
2022/10/18 07:37:17;;;;;;;6.97;6.37;;;16.70;99.90;;;;;;5128514;27;20213;-69
2022/10/18 07:39:43;;;;;;;7.00;6.37;;;16.70;99.90;;;;;;5128857;27;20233;-68
2022/10/18 07:42:10;;;;;;;7.10;6.60;;;16.60;99.90;;;;;;5128493;27;20605;-68
2022/10/18 07:44:39;;;;;;;7.37;6.77;;;16.60;99.90;;;;;;5128292;27;20205;-68
2022/10/18 07:47:06;;;;;;;7.27;6.67;;;16.60;99.90;;;;;;5128865;27;20393;-68
2022/10/18 07:49:32;;;;;;;7.10;6.60;;;16.70;99.90;;;;;;5115969;27;20296;-69
2022/10/18 07:51:59;;;;;;;8.00;6.67;;;16.70;99.90;;;;;;5108049;28;20209;-68
2022/10/18 07:54:26;;;;;;;6.63;6.03;;;16.70;99.90;;;;;;5107875;28;20699;-68
2022/10/18 07:56:53;;;;;;;6.67;6.10;;;16.80;99.90;;;;;;5107492;28;20206;-69
2022/10/18 07:59:19;;;;;;;6.53;5.80;;;16.80;99.90;;;;;;5107884;28;20230;-68
2022/10/18 08:01:47;;;;;;;6.53;5.93;;;16.80;99.90;;;;;;5107749;28;20232;-68
2022/10/18 08:04:14;;;;;;;7.30;6.60;;;16.90;99.90;;;;;;5126988;27;20213;-69
2022/10/18 08:06:41;;;;;;;7.33;6.77;;;16.90;99.90;;;;;;5128953;27;20224;-68
2022/10/18 08:09:08;;;;;;;7.00;6.30;;;16.90;99.90;;;;;;5128500;27;20588;-68
2022/10/18 08:11:34;;;;;;;7.13;6.53;;;16.90;99.90;;;;;;5128396;27;20216;-68
2022/10/18 08:14:01;;;;;;;7.03;6.53;;;17.00;99.90;;;;;;5128927;27;20560;-68
2022/10/18 08:16:30;;;;;;;6.83;6.33;;;17.00;99.90;;;;;;5128531;27;20212;-68
2022/10/18 08:18:58;;;;;;;7.17;6.57;;;17.00;99.90;;;;;;5128707;27;20229;-68
2022/10/18 08:21:25;;;;;;;7.40;6.70;;;17.00;99.90;;;;;;5119093;27;20583;-68
2022/10/18 08:23:53;;;;;;;8.07;7.37;;;17.00;99.90;;;;;;5108135;28;20201;-68
2022/10/18 08:26:22;;;;;;;8.30;7.37;;;17.00;99.90;;;;;;5126089;28;20611;-68
2022/10/18 08:28:50;;;;;;;7.63;7.03;;;17.00;99.90;;;;;;5128681;27;20208;-69
2022/10/18 08:31:18;;;;;;;8.80;7.97;;;17.00;99.90;;;;;;5128409;27;20209;-69
2022/10/18 08:33:46;;;;;;;10.23;8.93;;;17.00;99.90;;;;;;5128218;27;20201;-68
2022/10/18 08:36:16;;;;;;;11.60;9.33;;;17.00;99.90;;;;;;5128242;27;20238;-69
2022/10/18 08:38:43;;;;;;;12.83;9.43;;;17.00;99.90;;;;;;5128250;27;20196;-68
2022/10/18 08:41:32;;;;;;;12.77;10.33;;;17.00;99.90;;;;;;5127536;27;20229;-68
2022/10/18 08:44:07;;;;;;;14.53;9.57;;;17.00;99.90;;;;;;5127798;27;20247;-68
2022/10/18 08:46:37;;;;;;;12.03;9.33;;;17.00;99.90;;;;;;5129665;27;20666;-69
2022/10/18 08:49:05;;;;;;;11.23;8.60;;;16.90;99.90;;;;;;5119000;27;20422;-69
2022/10/18 08:51:40;;;;;;;10.93;8.10;;;16.80;99.90;;;;;;5114818;27;20205;-69
2022/10/18 08:54:12;;;;;;;9.77;8.77;;;16.70;99.90;;;;;;5131752;27;20694;-69
2022/10/18 08:56:41;;;;;;;9.80;8.80;;;16.70;99.90;;;;;;5131602;27;20212;-68
2022/10/18 08:59:11;;;;;;;10.00;8.57;;;16.80;99.90;;;;;;5132009;27;20213;-69
2022/10/18 09:01:46;;;;;;;8.60;7.67;;;16.60;99.90;;;;;;5131425;27;20253;-68
2022/10/18 09:04:27;;;;;;;9.03;8.13;;;16.60;99.90;;;;;;5131735;27;20193;-69
2022/10/18 09:07:12;;;;;;;9.20;8.40;;;16.60;99.90;;;;;;5131581;27;20201;-69
2022/10/18 09:09:45;;;;;;;9.07;8.37;;;16.60;99.90;;;;;;5131634;27;20189;-69
2022/10/18 09:12:30;;;;;;;9.50;8.70;;;16.50;99.90;;;;;;5131230;27;20193;-68
2022/10/18 09:15:12;;;;;;;9.00;8.30;;;16.40;99.90;;;;;;5131759;27;20193;-68
2022/10/18 09:17:51;;;;;;;10.23;9.23;;;16.40;99.90;;;;;;5122446;27;20209;-68
2022/10/18 09:20:23;;;;;;;9.83;8.20;;;16.50;99.90;;;;;;5110369;28;20669;-69
2022/10/18 09:22:56;;;;;;;7.93;7.30;;;16.60;99.90;;;;;;5109971;28;20210;-69
2022/10/18 09:25:25;;;;;;;8.07;7.37;;;16.50;99.90;;;;;;5109621;28;20660;-68
2022/10/18 09:28:01;;;;;;;8.40;7.60;;;16.40;99.90;;;;;;5110284;28;20216;-68
2022/10/18 09:30:45;;;;;;;8.00;7.40;;;16.40;99.90;;;;;;5110593;28;20200;-68
2022/10/18 09:33:25;;;;;;;8.03;7.33;;;16.40;99.90;;;;;;5110645;28;20186;-68
2022/10/18 09:35:56;;;;;;;8.27;7.57;;;16.40;99.90;;;;;;5127080;27;20197;-68
2022/10/18 09:38:29;;;;;;;8.60;7.93;;;16.40;99.90;;;;;;5130915;27;20202;-68
2022/10/18 09:40:59;;;;;;;8.53;7.83;;;16.40;99.90;;;;;;5130771;27;20281;-68
2022/10/18 09:43:37;;;;;;;8.70;8.00;;;16.40;99.90;;;;;;5130835;27;20690;-69
2022/10/18 09:46:05;;;;;;;9.03;8.23;;;16.40;99.90;;;;;;5130669;27;20201;-68
2022/10/18 09:48:37;;;;;;;9.33;8.53;;;16.50;99.90;;;;;;5127319;27;20477;-68
2022/10/18 09:51:10;;;;;;;8.97;8.27;;;16.50;99.90;;;;;;5110383;28;20554;-68
2022/10/18 09:53:43;;;;;;;8.57;7.87;;;16.50;99.90;;;;;;5110355;28;20236;-68
2022/10/18 09:56:15;;;;;;;13.20;11.87;;;16.50;99.90;;;;;;5124068;27;20198;-68
2022/10/18 09:58:44;;;;;;;9.60;8.80;;;16.50;99.90;;;;;;5130430;27;20201;-68
2022/10/18 10:01:13;;;;;;;9.30;8.50;;;16.50;99.90;;;;;;5130188;27;20237;-69
2022/10/18 10:03:41;;;;;;;9.50;8.67;;;16.50;99.90;;;;;;5130252;27;20827;-68
2022/10/18 10:06:24;;;;;;;8.97;8.20;;;16.40;99.90;;;;;;5130872;27;20564;-68
2022/10/18 10:08:58;;;;;;;8.70;7.90;;;16.40;99.90;;;;;;5130445;27;20190;-68
2022/10/18 10:11:30;;;;;;;8.23;7.50;;;16.40;99.90;;;;;;5129920;27;20184;-69
2022/10/18 10:14:03;;;;;;;9.37;8.37;;;16.40;99.90;;;;;;5130381;27;20220;-69
2022/10/18 10:16:30;;;;;;;9.03;8.30;;;16.40;99.90;;;;;;5130474;27;20204;-68
2022/10/18 10:18:57;;;;;;;9.33;8.33;;;16.40;99.90;;;;;;5130315;27;20198;-68
2022/10/18 10:21:24;;;;;;;9.20;8.40;;;16.30;99.90;;;;;;5129755;27;20240;-68
2022/10/18 10:23:53;;;;;;;8.97;8.20;;;16.30;99.90;;;;;;5130456;27;20237;-68
2022/10/18 10:26:24;;;;;;;9.27;8.57;;;16.30;99.90;;;;;;5130088;27;20204;-69
2022/10/18 10:28:51;;;;;;;9.70;8.60;;;16.30;99.90;;;;;;5130256;27;20212;-68
2022/10/18 10:31:26;;;;;;;9.00;8.20;;;16.30;99.90;;;;;;5130023;27;20209;-69
2022/10/18 10:34:00;;;;;;;10.27;8.40;;;16.30;99.90;;;;;;5129766;27;20547;-68
2022/10/18 10:36:27;;;;;;;9.37;8.47;;;16.40;99.90;;;;;;5109445;28;20279;-69
2022/10/18 10:39:04;;;;;;;10.07;9.30;;;16.40;99.90;;;;;;5109522;28;20206;-69
2022/10/18 10:41:33;;;;;;;8.77;8.17;;;16.50;99.90;;;;;;5108783;28;20232;-68
2022/10/18 10:44:03;;;;;;;9.53;8.73;;;16.50;99.90;;;;;;5108930;28;20699;-68
2022/10/18 10:46:35;;;;;;;9.17;8.40;;;16.50;99.90;;;;;;5109034;28;20202;-68
2022/10/18 10:49:02;;;;;;;8.80;8.03;;;16.60;99.90;;;;;;5109241;28;20198;-69
2022/10/18 10:51:31;;;;;;;9.03;8.23;;;16.60;99.90;;;;;;5111646;27;20696;-69
2022/10/18 10:54:03;;;;;;;8.67;7.80;;;16.60;99.90;;;;;;5108943;28;20679;-68
2022/10/18 10:56:35;;;;;;;8.90;8.03;;;16.70;99.90;;;;;;5109024;28;20197;-69
2022/10/18 10:59:09;;;;;;;9.27;7.77;;;16.70;99.90;;;;;;5108851;28;20659;-69
2022/10/18 11:01:36;;;;;;;8.40;7.70;;;16.70;99.90;;;;;;5108454;28;20704;-69
2022/10/18 11:04:24;;;;;;;8.60;7.90;;;16.70;99.90;;;;;;5108929;27;20559;-68
2022/10/18 11:06:57;;;;;;;7.33;6.83;;;16.70;99.90;;;;;;5108936;28;20218;-68
2022/10/18 11:09:45;;;;;;;7.90;6.80;;;16.70;99.90;;;;;;5120646;27;20193;-68
2022/10/18 11:12:37;;;;;;;8.40;7.70;;;16.70;99.90;;;;;;5108351;28;20206;-69
2022/10/18 11:15:20;;;;;;;7.63;6.97;;;16.80;99.90;;;;;;5105899;28;20557;-68
2022/10/18 11:17:56;;;;;;;7.83;7.23;;;16.80;99.90;;;;;;5117768;27;20202;-68
2022/10/18 11:20:27;;;;;;;7.47;6.90;;;16.80;99.90;;;;;;5128622;27;20695;-68
2022/10/18 11:23:00;;;;;;;6.77;6.13;;;16.80;99.90;;;;;;5129057;27;20205;-68
2022/10/18 11:25:46;;;;;;;8.40;7.70;;;16.80;99.90;;;;;;5128547;27;20246;-69
2022/10/18 11:28:25;;;;;;;6.70;6.10;;;16.80;99.90;;;;;;5128945;27;20194;-69
2022/10/18 11:31:07;;;;;;;6.60;6.10;;;16.80;99.90;;;;;;5128973;27;20196;-68
2022/10/18 11:33:48;;;;;;;6.43;6.03;;;16.70;99.90;;;;;;5112618;27;20186;-68
2022/10/18 11:36:20;;;;;;;6.20;5.80;;;16.70;99.90;;;;;;5127918;27;20196;-68
2022/10/18 11:38:55;;;;;;;6.43;5.93;;;16.70;99.90;;;;;;5128456;27;20200;-69
2022/10/18 11:41:31;;;;;;;6.60;6.00;;;16.60;99.90;;;;;;5128069;27;20228;-69
2022/10/18 11:44:01;;;;;;;6.20;5.80;;;16.60;99.90;;;;;;5128770;27;20193;-68
2022/10/18 11:46:43;;;;;;;5.90;5.50;;;16.60;99.90;;;;;;5128378;27;20305;-69
2022/10/18 11:49:31;;;;;;;5.57;5.27;;;16.60;99.90;;;;;;5118949;27;20221;-69
2022/10/18 11:52:08;;;;;;;5.70;5.30;;;16.70;99.90;;;;;;5115482;27;20205;-68
2022/10/18 11:54:51;;;;;;;5.37;5.03;;;16.70;99.90;;;;;;5128663;27;20197;-69
2022/10/18 11:57:33;;;;;;;6.37;5.90;;;16.70;99.90;;;;;;5128265;27;20212;-69
2022/10/18 12:00:14;;;;;;;5.63;5.23;;;16.70;99.90;;;;;;5128756;27;20200;-68
2022/10/18 12:02:57;;;;;;;5.47;5.17;;;16.70;99.90;;;;;;5128263;27;20236;-68
2022/10/18 12:05:24;;;;;;;6.00;5.40;;;16.60;99.90;;;;;;5128422;27;20200;-69
2022/10/18 12:07:57;;;;;;;6.23;5.80;;;16.50;99.90;;;;;;5128547;27;20212;-69
2022/10/18 12:10:25;;;;;;;6.70;6.20;;;16.40;99.90;;;;;;5128384;27;20194;-68
2022/10/18 12:12:57;;;;;;;7.07;6.57;;;16.40;99.90;;;;;;5128308;27;20201;-69
2022/10/18 12:15:27;;;;;;;7.33;6.67;;;16.30;99.90;;;;;;5128304;27;20304;-69
2022/10/18 12:17:58;;;;;;;7.80;7.20;;;16.40;99.90;;;;;;5128228;27;20201;-69
2022/10/18 12:20:29;;;;;;;7.13;6.63;;;16.30;99.90;;;;;;5130004;27;20229;-68
2022/10/18 12:23:00;;;;;;;10.03;7.53;;;16.30;99.90;;;;;;5116756;27;20206;-69
2022/10/18 12:25:29;;;;;;;7.93;7.33;;;16.30;99.90;;;;;;5111977;28;20263;-69
2022/10/18 12:28:05;;;;;;;7.73;7.17;;;16.30;99.90;;;;;;5112480;28;20207;-68
2022/10/18 12:30:42;;;;;;;8.63;7.90;;;16.40;99.90;;;;;;5112208;28;20569;-69
2022/10/18 12:33:12;;;;;;;9.00;8.23;;;16.50;99.90;;;;;;5124237;27;20723;-69
2022/10/18 12:35:49;;;;;;;9.17;8.37;;;16.50;99.90;;;;;;5132535;27;20201;-69
2022/10/18 12:38:21;;;;;;;10.80;9.17;;;16.50;99.90;;;;;;5132619;27;20200;-69
2022/10/18 12:40:51;;;;;;;9.63;8.73;;;16.40;99.90;;;;;;5132155;27;20239;-68
2022/10/18 12:43:23;;;;;;;9.67;8.77;;;16.50;99.90;;;;;;5131742;27;20190;-68
2022/10/18 12:45:54;;;;;;;9.47;8.47;;;16.40;99.90;;;;;;5132370;27;20267;-68
2022/10/18 12:48:34;;;;;;;9.93;9.20;;;16.40;99.90;;;;;;5129640;27;20186;-69
2022/10/18 12:51:05;;;;;;;9.83;8.97;;;16.50;99.90;;;;;;5111591;28;20198;-69
2022/10/18 12:53:33;;;;;;;11.47;10.37;;;16.40;99.90;;;;;;5111268;28;20186;-68
2022/10/18 12:56:35;;;;;;;10.57;9.63;;;16.40;99.90;;;;;;5111298;28;20206;-68
2022/10/18 12:59:50;;;;;;;10.40;8.97;;;16.50;99.90;;;;;;5111518;28;20254;-68
2022/10/18 13:02:30;;;;;;;9.60;8.70;;;16.50;99.90;;;;;;5123546;27;20290;-68